createdAt,value
2022-10-09T00:01:04.560Z,1.4
2022-10-09T00:02:14.276Z,1.6
2022-10-09T00:03:23.959Z,1.8
2022-10-09T00:04:32.644Z,2
2022-10-09T00:05:42.516Z,1.8
2022-10-09T00:06:50.134Z,1.7
2022-10-09T00:07:59.844Z,1.5
2022-10-09T00:09:08.521Z,2.1
2022-10-09T00:10:16.210Z,2
2022-10-09T00:11:25.955Z,2
2022-10-09T00:12:34.737Z,1.5
2022-10-09T00:13:44.379Z,1.9
2022-10-09T00:14:54.083Z,1.7
2022-10-09T00:16:01.792Z,1.8
2022-10-09T00:17:11.668Z,1.6
2022-10-09T00:18:20.247Z,1.4
2022-10-09T00:19:29.993Z,1.8
2022-10-09T00:20:39.676Z,1.9
2022-10-09T00:21:47.346Z,1.3
2022-10-09T00:22:57.074Z,1.8
2022-10-09T00:24:06.808Z,2.3
2022-10-09T00:25:15.522Z,1.4
2022-10-09T00:26:25.245Z,1.7
2022-10-09T00:27:33.923Z,2.3
2022-10-09T00:28:41.773Z,1.6
2022-10-09T00:29:51.444Z,1.3
2022-10-09T00:31:00.236Z,1.7
2022-10-09T00:32:08.870Z,1.5
2022-10-09T00:33:18.562Z,1.8
2022-10-09T00:34:27.259Z,1.4
2022-10-09T00:35:36.982Z,1.5
2022-10-09T00:36:45.634Z,1.6
2022-10-09T00:37:52.302Z,1.8
2022-10-09T00:39:02.057Z,1.4
2022-10-09T00:40:10.782Z,1.6
2022-10-09T00:41:19.468Z,1.3
2022-10-09T00:42:29.176Z,1.4
2022-10-09T00:43:37.863Z,1.6
2022-10-09T00:44:47.651Z,3.2
2022-10-09T00:45:56.482Z,2.5
2022-10-09T00:47:05.211Z,1.9
2022-10-09T00:48:14.881Z,1.7
2022-10-09T00:49:23.571Z,1.8
2022-10-09T00:50:32.268Z,1.4
2022-10-09T00:51:41.971Z,1.7
2022-10-09T00:52:49.882Z,1.5
2022-10-09T00:53:59.324Z,1.6
2022-10-09T00:55:08.030Z,1.5
2022-10-09T00:56:16.712Z,1.5
2022-10-09T00:57:25.473Z,1.7
2022-10-09T00:58:35.117Z,1.9
2022-10-09T00:59:43.812Z,1.7
2022-10-09T01:00:53.556Z,1.8
2022-10-09T01:02:01.325Z,1.9
2022-10-09T01:03:10.967Z,1.4
2022-10-09T01:04:19.673Z,1.7
2022-10-09T01:05:27.347Z,1.9
2022-10-09T01:06:37.047Z,1.6
2022-10-09T01:07:46.767Z,1.4
2022-10-09T01:08:54.574Z,1.8
2022-10-09T01:10:04.278Z,1.9
2022-10-09T01:11:11.958Z,1.1
2022-10-09T01:12:21.651Z,1.6
2022-10-09T01:13:30.336Z,1.2
2022-10-09T01:14:38.030Z,1.5
2022-10-09T01:15:47.815Z,1.6
2022-10-09T01:16:56.434Z,1.6
2022-10-09T01:18:05.206Z,1.6
2022-10-09T01:19:14.879Z,1.4
2022-10-09T01:20:22.606Z,1.8
2022-10-09T01:21:32.331Z,1.4
2022-10-09T01:22:41.013Z,1.4
2022-10-09T01:23:50.918Z,1.4
2022-10-09T01:25:00.451Z,1.7
2022-10-09T01:26:08.163Z,1.8
2022-10-09T01:27:17.871Z,2.1
2022-10-09T01:28:25.596Z,1.8
2022-10-09T01:29:35.330Z,1.6
2022-10-09T01:30:45.093Z,2
2022-10-09T01:31:52.928Z,1.7
2022-10-09T01:33:02.616Z,1.7
2022-10-09T01:34:11.313Z,1.7
2022-10-09T01:35:20.993Z,1.7
2022-10-09T01:36:30.703Z,2.1
2022-10-09T01:37:38.456Z,1.8
2022-10-09T01:38:46.254Z,1.8
2022-10-09T01:39:55.963Z,1.6
2022-10-09T01:41:04.693Z,2.1
2022-10-09T01:42:14.491Z,1.9
2022-10-09T01:43:23.214Z,1.9
2022-10-09T01:44:31.884Z,1.4
2022-10-09T01:45:41.583Z,1.8
2022-10-09T01:46:51.282Z,1.5
2022-10-09T01:47:59.963Z,1.5
2022-10-09T01:49:09.683Z,1.8
2022-10-09T01:50:17.383Z,1.9
2022-10-09T01:51:27.088Z,1.7
2022-10-09T01:52:39.208Z,1.8
2022-10-09T01:53:46.516Z,2
2022-10-09T01:54:56.248Z,1.8
2022-10-09T01:56:05.979Z,1.8
2022-10-09T01:57:15.641Z,1.7
2022-10-09T01:58:25.357Z,1.8
2022-10-09T01:59:34.059Z,1.7
2022-10-09T02:00:43.875Z,2
2022-10-09T02:01:52.681Z,1.4
2022-10-09T02:03:01.370Z,1.6
2022-10-09T02:04:10.989Z,1.7
2022-10-09T02:05:19.680Z,2.1
2022-10-09T02:06:28.384Z,1.8
2022-10-09T02:07:38.056Z,1.6
2022-10-09T02:08:45.752Z,1.5
2022-10-09T02:09:55.431Z,1.7
2022-10-09T02:11:04.129Z,1.5
2022-10-09T02:12:14.039Z,1.3
2022-10-09T02:13:23.690Z,2.1
2022-10-09T02:14:31.457Z,1.9
2022-10-09T02:15:41.208Z,1.8
2022-10-09T02:16:50.837Z,2
2022-10-09T02:17:58.562Z,2
2022-10-09T02:19:07.253Z,1.9
2022-10-09T02:20:15.955Z,2
2022-10-09T02:21:23.631Z,1.6
2022-10-09T02:22:33.308Z,1.7
2022-10-09T02:23:43.064Z,1.7
2022-10-09T02:24:52.750Z,1.7
2022-10-09T02:26:02.488Z,1.5
2022-10-09T02:27:10.368Z,1.9
2022-10-09T02:28:20.121Z,1.4
2022-10-09T02:29:29.891Z,1.9
2022-10-09T02:30:37.590Z,1.4
2022-10-09T02:31:47.328Z,2
2022-10-09T02:32:57.030Z,1.7
2022-10-09T02:34:05.720Z,1.7
2022-10-09T02:35:15.522Z,1.8
2022-10-09T02:36:24.215Z,1.7
2022-10-09T02:37:33.898Z,1.7
2022-10-09T02:38:42.597Z,1.9
2022-10-09T02:39:50.300Z,1.9
2022-10-09T02:41:00.002Z,1.3
2022-10-09T02:42:07.712Z,1.7
2022-10-09T02:43:17.509Z,2
2022-10-09T02:44:27.228Z,1.4
2022-10-09T02:45:34.930Z,1.7
2022-10-09T02:46:44.709Z,1.8
2022-10-09T02:47:53.359Z,1.6
2022-10-09T02:49:02.128Z,1.7
2022-10-09T02:50:11.828Z,2
2022-10-09T02:51:20.559Z,1.6
2022-10-09T02:52:30.247Z,1.8
2022-10-09T02:53:39.916Z,1.9
2022-10-09T02:54:48.614Z,1.9
2022-10-09T02:55:58.316Z,1.8
2022-10-09T02:57:08.013Z,2.1
2022-10-09T02:58:15.775Z,2.1
2022-10-09T02:59:25.456Z,2
2022-10-09T03:00:35.191Z,2
2022-10-09T03:01:44.908Z,2.2
2022-10-09T03:02:54.599Z,2.4
2022-10-09T03:04:03.360Z,2.5
2022-10-09T03:05:12.072Z,2.1
2022-10-09T03:06:21.754Z,2.2
2022-10-09T03:07:29.441Z,2.2
2022-10-09T03:08:39.122Z,2.6
2022-10-09T03:09:46.809Z,2.4
2022-10-09T03:10:55.511Z,2.4
2022-10-09T03:12:05.240Z,2.3
2022-10-09T03:13:12.925Z,2.4
2022-10-09T03:14:22.619Z,2.3
2022-10-09T03:15:31.476Z,2.5
2022-10-09T03:16:41.225Z,2.4
2022-10-09T03:17:50.899Z,2.1
2022-10-09T03:18:59.624Z,2.5
2022-10-09T03:20:09.317Z,2.6
2022-10-09T03:21:18.034Z,2.1
2022-10-09T03:22:25.719Z,2
2022-10-09T03:23:35.455Z,2
2022-10-09T03:24:44.138Z,2.1
2022-10-09T03:25:53.839Z,2.1
2022-10-09T03:27:03.619Z,2
2022-10-09T03:28:11.392Z,1.7
2022-10-09T03:29:21.003Z,1.9
2022-10-09T03:30:28.710Z,1.6
2022-10-09T03:31:53.852Z,1.6
2022-10-09T03:32:49.736Z,1.9
2022-10-09T03:33:58.240Z,1.3
2022-10-09T03:35:06.959Z,1.5
2022-10-09T03:36:14.627Z,1.3
2022-10-09T03:37:23.338Z,1.4
2022-10-09T03:38:33.185Z,1.5
2022-10-09T03:39:40.893Z,1.3
2022-10-09T03:40:49.567Z,1.6
2022-10-09T03:41:59.312Z,1.1
2022-10-09T03:43:08.043Z,1.3
2022-10-09T03:44:17.769Z,1.2
2022-10-09T03:45:26.499Z,1.5
2022-10-09T03:46:34.302Z,1.2
2022-10-09T03:47:43.843Z,1.2
2022-10-09T03:48:53.612Z,1.5
2022-10-09T03:50:02.308Z,1.2
2022-10-09T03:51:11.046Z,1.7
2022-10-09T03:52:20.736Z,1.5
2022-10-09T03:53:30.417Z,1.7
2022-10-09T03:54:39.119Z,1.1
2022-10-09T03:55:47.872Z,1.4
2022-10-09T03:56:57.569Z,1.7
2022-10-09T03:58:05.311Z,1.3
2022-10-09T03:59:15.008Z,1.5
2022-10-09T04:00:23.701Z,1.1
2022-10-09T04:01:31.453Z,1
2022-10-09T04:02:41.291Z,1.3
2022-10-09T04:03:50.867Z,1.4
2022-10-09T04:05:00.584Z,1.4
2022-10-09T04:06:10.236Z,1.6
2022-10-09T04:07:18.019Z,1.3
2022-10-09T04:08:26.703Z,1.1
2022-10-09T04:09:36.426Z,1.1
2022-10-09T04:10:46.104Z,1.3
2022-10-09T04:11:55.793Z,1.4
2022-10-09T04:13:04.514Z,1.2
2022-10-09T04:14:12.208Z,1
2022-10-09T04:15:21.912Z,1.4
2022-10-09T04:16:29.682Z,1.3
2022-10-09T04:17:38.310Z,1.2
2022-10-09T04:18:48.069Z,1.3
2022-10-09T04:19:56.772Z,1.4
2022-10-09T04:21:06.494Z,1.1
2022-10-09T04:22:15.214Z,1.1
2022-10-09T04:23:22.908Z,1.5
2022-10-09T04:24:32.659Z,1.5
2022-10-09T04:25:40.343Z,1.4
2022-10-09T04:26:49.043Z,1.6
2022-10-09T04:27:58.775Z,1.3
2022-10-09T04:29:06.487Z,1.5
2022-10-09T04:30:16.205Z,1.1
2022-10-09T04:31:25.946Z,1.4
2022-10-09T04:32:33.580Z,1.3
2022-10-09T04:33:43.314Z,1.5
2022-10-09T04:34:54.028Z,1.2
2022-10-09T04:36:02.724Z,1.6
2022-10-09T04:37:12.468Z,1.4
2022-10-09T04:38:21.171Z,1.5
2022-10-09T04:39:29.875Z,1.3
2022-10-09T04:40:39.576Z,1.3
2022-10-09T04:41:47.318Z,1.1
2022-10-09T04:42:57.002Z,1.5
2022-10-09T04:44:04.675Z,1.2
2022-10-09T04:45:14.379Z,1.2
2022-10-09T04:46:24.059Z,1.3
2022-10-09T04:47:31.748Z,1.3
2022-10-09T04:48:41.419Z,1.1
2022-10-09T04:49:50.116Z,1.4
2022-10-09T04:50:57.845Z,1.3
2022-10-09T04:52:07.580Z,1.3
2022-10-09T04:53:17.402Z,1
2022-10-09T04:54:27.114Z,1.3
2022-10-09T04:55:36.845Z,1.4
2022-10-09T04:56:44.549Z,1
2022-10-09T04:57:54.263Z,1.4
2022-10-09T04:59:04.007Z,1.1
2022-10-09T05:00:12.725Z,1.2
2022-10-09T05:01:22.493Z,1.4
2022-10-09T05:02:30.212Z,1.1
2022-10-09T05:03:38.861Z,1.2
2022-10-09T05:04:48.578Z,1.2
2022-10-09T05:05:57.307Z,1.2
2022-10-09T05:07:06.969Z,1.1
2022-10-09T05:08:16.674Z,0.9
2022-10-09T05:09:27.381Z,1.2
2022-10-09T05:10:37.185Z,1.3
2022-10-09T05:11:46.871Z,0.9
2022-10-09T05:12:55.587Z,1.1
2022-10-09T05:14:05.315Z,1.2
2022-10-09T05:15:14.041Z,1.2
2022-10-09T05:16:23.876Z,1.2
2022-10-09T05:17:32.563Z,0.8
2022-10-09T05:18:40.175Z,1.2
2022-10-09T05:19:49.856Z,1.2
2022-10-09T05:20:56.560Z,1.3
2022-10-09T05:22:06.442Z,1
2022-10-09T05:23:15.124Z,1.1
2022-10-09T05:24:24.900Z,1
2022-10-09T05:25:34.621Z,1.1
2022-10-09T05:26:42.284Z,1.1
2022-10-09T05:27:51.993Z,0.7
2022-10-09T05:29:01.699Z,0.8
2022-10-09T05:30:09.406Z,0.8
2022-10-09T05:31:19.125Z,1.1
2022-10-09T05:32:26.766Z,1.1
2022-10-09T05:33:35.631Z,0.9
2022-10-09T05:34:45.352Z,1.3
2022-10-09T05:35:53.042Z,1
2022-10-09T05:37:02.749Z,1.3
2022-10-09T05:38:11.462Z,1.4
2022-10-09T05:39:18.169Z,1.3
2022-10-09T05:40:29.305Z,1.3
2022-10-09T05:41:38.586Z,1.2
2022-10-09T05:42:47.547Z,1.1
2022-10-09T05:43:57.030Z,1.1
2022-10-09T05:45:06.969Z,1
2022-10-09T05:46:16.756Z,1
2022-10-09T05:47:25.432Z,1
2022-10-09T05:48:33.152Z,1
2022-10-09T05:49:42.888Z,1.2
2022-10-09T05:50:51.716Z,1
2022-10-09T05:52:00.407Z,1
2022-10-09T05:53:10.128Z,1.5
2022-10-09T05:54:18.859Z,1.4
2022-10-09T05:55:28.655Z,1.5
2022-10-09T05:56:37.409Z,1.4
2022-10-09T05:57:47.125Z,1.1
2022-10-09T05:58:56.879Z,1.6
2022-10-09T06:00:04.655Z,1.3
2022-10-09T06:01:13.517Z,0.8
2022-10-09T06:02:23.242Z,1.2
2022-10-09T06:03:31.910Z,1.3
2022-10-09T06:04:41.714Z,1.4
2022-10-09T06:05:49.419Z,1.1
2022-10-09T06:06:57.250Z,1.4
2022-10-09T06:08:07.042Z,1.2
2022-10-09T06:09:15.753Z,1
2022-10-09T06:10:26.300Z,1.1
2022-10-09T06:11:35.173Z,1.1
2022-10-09T06:12:41.913Z,1.2
2022-10-09T06:13:51.781Z,1.2
2022-10-09T06:15:00.454Z,1.1
2022-10-09T06:16:09.217Z,1.1
2022-10-09T06:17:18.916Z,1.2
2022-10-09T06:18:26.642Z,1
2022-10-09T06:19:35.363Z,1.3
2022-10-09T06:20:45.066Z,1.3
2022-10-09T06:21:52.759Z,1.3
2022-10-09T06:23:02.445Z,1.2
2022-10-09T06:24:11.166Z,1.3
2022-10-09T06:25:18.990Z,1.4
2022-10-09T06:26:28.726Z,1.2
2022-10-09T06:27:36.446Z,1
2022-10-09T06:28:45.257Z,1
2022-10-09T06:29:54.981Z,1
2022-10-09T06:31:03.768Z,1
2022-10-09T06:32:13.406Z,1.2
2022-10-09T06:33:22.217Z,1.3
2022-10-09T06:34:30.898Z,1.1
2022-10-09T06:35:40.638Z,0.9
2022-10-09T06:36:49.403Z,1
2022-10-09T06:37:58.165Z,0.9
2022-10-09T06:39:06.851Z,0.9
2022-10-09T06:40:15.575Z,1.1
2022-10-09T06:41:25.314Z,1.8
2022-10-09T06:42:34.022Z,2
2022-10-09T06:43:42.758Z,2.1
2022-10-09T06:44:52.470Z,2.5
2022-10-09T06:46:02.282Z,1.8
2022-10-09T06:47:11.986Z,2.3
2022-10-09T06:48:21.880Z,1.6
2022-10-09T06:49:29.608Z,1.1
2022-10-09T06:50:39.450Z,1.1
2022-10-09T06:51:48.140Z,1.1
2022-10-09T06:52:56.789Z,0.8
2022-10-09T06:54:06.612Z,1
2022-10-09T06:55:14.288Z,1.4
2022-10-09T06:56:23.001Z,1.4
2022-10-09T06:57:32.698Z,1.2
2022-10-09T06:58:41.379Z,1
2022-10-09T06:59:51.092Z,1
2022-10-09T07:01:00.784Z,1
2022-10-09T07:02:10.616Z,0.9
2022-10-09T07:03:20.247Z,2.5
2022-10-09T07:04:29.931Z,1.4
2022-10-09T07:05:39.670Z,1
2022-10-09T07:06:49.416Z,0.8
2022-10-09T07:07:59.119Z,0.6
2022-10-09T07:09:08.858Z,0.8
2022-10-09T07:10:20.591Z,0.7
2022-10-09T07:11:26.286Z,0.8
2022-10-09T07:12:36.013Z,0.8
2022-10-09T07:13:44.719Z,0.7
2022-10-09T07:14:53.460Z,1
2022-10-09T07:16:04.901Z,1.2
2022-10-09T07:17:13.887Z,0.9
2022-10-09T07:18:23.566Z,1.1
2022-10-09T07:19:31.315Z,1
2022-10-09T07:20:40.998Z,0.8
2022-10-09T07:21:49.666Z,0.8
2022-10-09T07:22:57.347Z,1.6
2022-10-09T07:24:07.035Z,0.9
2022-10-09T07:25:14.714Z,0.7
2022-10-09T07:26:24.444Z,0.8
2022-10-09T07:27:34.200Z,1.2
2022-10-09T07:28:43.102Z,1.1
2022-10-09T07:29:52.737Z,0.9
2022-10-09T07:31:02.455Z,1
2022-10-09T07:32:11.146Z,0.8
2022-10-09T07:33:20.844Z,0.8
2022-10-09T07:34:30.563Z,1.1
2022-10-09T07:35:40.258Z,1
2022-10-09T07:36:49.955Z,1.5
2022-10-09T07:37:58.709Z,1.2
2022-10-09T07:39:08.433Z,1.5
2022-10-09T07:40:17.209Z,1.4
2022-10-09T07:41:25.908Z,1.5
2022-10-09T07:42:35.601Z,1.6
2022-10-09T07:43:44.291Z,1.3
2022-10-09T07:44:52.979Z,1.1
2022-10-09T07:46:02.831Z,0.7
2022-10-09T07:47:10.555Z,0.8
2022-10-09T07:48:20.237Z,1.2
2022-10-09T07:49:29.941Z,1.2
2022-10-09T07:50:38.619Z,1.9
2022-10-09T07:51:48.319Z,1.1
2022-10-09T07:52:57.077Z,1.5
2022-10-09T07:54:06.814Z,1.1
2022-10-09T07:55:16.544Z,0.8
2022-10-09T07:56:25.264Z,0.9
2022-10-09T07:57:35.005Z,1.1
2022-10-09T07:58:44.724Z,1.4
2022-10-09T07:59:52.449Z,1
2022-10-09T08:01:02.241Z,0.8
2022-10-09T08:02:10.946Z,1
2022-10-09T08:03:19.641Z,1
2022-10-09T08:04:29.378Z,1.5
2022-10-09T08:05:39.102Z,1.6
2022-10-09T08:06:48.790Z,1.5
2022-10-09T08:07:57.492Z,0.9
2022-10-09T08:09:06.218Z,0.9
2022-10-09T08:10:15.967Z,0.9
2022-10-09T08:11:24.682Z,1.4
2022-10-09T08:12:33.359Z,1
2022-10-09T08:13:43.052Z,1.1
2022-10-09T08:14:50.809Z,0.9
2022-10-09T08:16:00.628Z,0.7
2022-10-09T08:17:10.346Z,0.7
2022-10-09T08:18:18.042Z,0.9
2022-10-09T08:19:27.783Z,1
2022-10-09T08:20:36.574Z,0.9
2022-10-09T08:21:47.273Z,0.7
2022-10-09T08:22:56.912Z,1.3
2022-10-09T08:24:04.607Z,0.9
2022-10-09T08:25:14.305Z,0.6
2022-10-09T08:26:24.007Z,0.7
2022-10-09T08:27:31.667Z,0.8
2022-10-09T08:28:41.481Z,1
2022-10-09T08:29:50.117Z,0.8
2022-10-09T08:30:59.877Z,0.7
2022-10-09T08:32:09.706Z,1.1
2022-10-09T08:33:17.374Z,0.7
2022-10-09T08:34:27.121Z,0.7
2022-10-09T08:35:36.769Z,1
2022-10-09T08:36:44.453Z,0.5
2022-10-09T08:37:54.250Z,1
2022-10-09T08:39:04.929Z,0.6
2022-10-09T08:40:14.640Z,0.6
2022-10-09T08:41:24.317Z,1.2
2022-10-09T08:42:33.075Z,0.9
2022-10-09T08:43:42.786Z,0.6
2022-10-09T08:44:52.449Z,0.9
2022-10-09T08:46:01.194Z,1.2
2022-10-09T08:47:10.926Z,0.7
2022-10-09T08:48:19.694Z,0.8
2022-10-09T08:49:28.436Z,1
2022-10-09T08:50:37.245Z,1.2
2022-10-09T08:51:45.969Z,0.9
2022-10-09T08:52:56.284Z,1.2
2022-10-09T08:54:06.491Z,1.3
2022-10-09T08:55:17.357Z,1
2022-10-09T08:56:27.097Z,1
2022-10-09T08:57:34.769Z,1.2
2022-10-09T08:58:43.436Z,1.4
2022-10-09T08:59:53.107Z,1.2
2022-10-09T09:01:01.842Z,1.1
2022-10-09T09:02:11.548Z,1.1
2022-10-09T09:03:21.237Z,1
2022-10-09T09:04:29.963Z,1.3
2022-10-09T09:05:39.679Z,1.4
2022-10-09T09:06:47.364Z,1.4
2022-10-09T09:07:56.111Z,1
2022-10-09T09:09:05.933Z,1
2022-10-09T09:10:15.577Z,1.1
2022-10-09T09:11:25.265Z,1.6
2022-10-09T09:12:33.952Z,1.1
2022-10-09T09:13:43.676Z,1.1
2022-10-09T09:14:53.422Z,1.2
2022-10-09T09:16:01.187Z,1.1
2022-10-09T09:17:10.923Z,1.3
2022-10-09T09:18:19.730Z,1.3
2022-10-09T09:19:28.462Z,1.2
2022-10-09T09:20:38.167Z,1
2022-10-09T09:21:46.814Z,1.1
2022-10-09T09:22:55.518Z,1.1
2022-10-09T09:24:04.394Z,1.4
2022-10-09T09:25:14.092Z,1.4
2022-10-09T09:26:23.779Z,1.2
2022-10-09T09:27:31.454Z,1.2
2022-10-09T09:28:40.192Z,1.3
2022-10-09T09:29:49.847Z,1.3
2022-10-09T09:31:00.622Z,1.1
2022-10-09T09:32:10.246Z,1.1
2022-10-09T09:33:18.934Z,1.2
2022-10-09T09:34:27.646Z,1.5
2022-10-09T09:35:37.510Z,1.2
2022-10-09T09:36:46.232Z,1.5
2022-10-09T09:37:54.911Z,1.2
2022-10-09T09:41:26.026Z,1.4
2022-10-09T09:42:34.735Z,1.1
2022-10-09T09:43:42.399Z,1.2
2022-10-09T09:44:51.123Z,1.1
2022-10-09T09:45:59.820Z,0.9
2022-10-09T09:47:08.566Z,0.8
2022-10-09T09:48:18.281Z,0.6
2022-10-09T09:49:27.969Z,0.9
2022-10-09T09:51:04.894Z,0.7
2022-10-09T09:51:46.399Z,0.8
2022-10-09T09:52:54.112Z,0.9
2022-10-09T09:54:02.862Z,0.8
2022-10-09T09:55:11.559Z,0.8
2022-10-09T09:56:20.240Z,0.7
2022-10-09T09:57:29.936Z,1
2022-10-09T09:58:39.692Z,0.8
2022-10-09T09:59:49.393Z,0.7
2022-10-09T10:00:59.106Z,0.8
2022-10-09T10:02:07.822Z,0.7
2022-10-09T10:03:17.480Z,0.7
2022-10-09T10:04:26.226Z,0.9
2022-10-09T10:05:35.922Z,0.9
2022-10-09T10:06:45.616Z,0.8
2022-10-09T10:07:53.282Z,1
2022-10-09T10:09:03.018Z,0.9
2022-10-09T10:10:11.739Z,0.9
2022-10-09T10:11:21.432Z,1.1
2022-10-09T10:12:31.122Z,0.6
2022-10-09T10:13:40.831Z,0.8
2022-10-09T10:14:50.549Z,0.7
2022-10-09T10:16:00.318Z,1.2
2022-10-09T10:17:08.985Z,0.9
2022-10-09T10:18:18.671Z,1.1
2022-10-09T10:19:27.359Z,1.8
2022-10-09T10:20:37.066Z,3.3
2022-10-09T10:21:46.977Z,1.7
2022-10-09T10:22:55.681Z,1.3
2022-10-09T10:24:05.486Z,1.1
2022-10-09T10:25:16.362Z,1.5
2022-10-09T10:26:26.086Z,1
2022-10-09T10:27:35.809Z,0.9
2022-10-09T10:28:45.507Z,1.6
2022-10-09T10:29:55.251Z,1.7
2022-10-09T10:31:05.083Z,1.4
2022-10-09T10:32:13.723Z,1.2
2022-10-09T10:33:22.445Z,1.4
2022-10-09T10:34:32.140Z,1
2022-10-09T10:35:40.886Z,0.9
2022-10-09T10:36:50.638Z,0.9
2022-10-09T10:37:59.313Z,1
2022-10-09T10:39:08.182Z,1.1
2022-10-09T10:40:17.925Z,1.3
2022-10-09T10:41:25.579Z,0.8
2022-10-09T10:42:34.308Z,1
2022-10-09T10:43:43.983Z,0.9
2022-10-09T10:44:52.720Z,0.9
2022-10-09T10:46:02.454Z,0.8
2022-10-09T10:47:12.109Z,0.7
2022-10-09T10:48:20.770Z,0.9
2022-10-09T10:49:33.618Z,0.7
2022-10-09T10:50:40.142Z,0.7
2022-10-09T10:51:48.793Z,0.8
2022-10-09T10:52:58.490Z,0.7
2022-10-09T10:54:08.179Z,0.9
2022-10-09T10:55:17.885Z,0.8
2022-10-09T10:56:27.973Z,1.1
2022-10-09T10:57:37.800Z,0.9
2022-10-09T10:58:47.523Z,0.9
2022-10-09T10:59:57.220Z,1.1
2022-10-09T11:01:06.969Z,1.1
2022-10-09T11:02:16.621Z,0.9
2022-10-09T11:03:24.454Z,0.5
2022-10-09T11:04:34.107Z,0.8
2022-10-09T11:05:42.775Z,0.9
2022-10-09T11:06:52.488Z,0.8
2022-10-09T11:08:02.187Z,0.7
2022-10-09T11:09:09.940Z,0.8
2022-10-09T11:10:18.644Z,0.8
2022-10-09T11:11:28.476Z,0.8
2022-10-09T11:12:48.358Z,0.7
2022-10-09T11:13:49.019Z,0.8
2022-10-09T11:14:57.747Z,0.7
2022-10-09T11:16:07.466Z,0.7
2022-10-09T11:17:17.218Z,0.9
2022-10-09T11:18:25.882Z,0.8
2022-10-09T11:19:35.662Z,0.9
2022-10-09T11:20:44.378Z,0.6
2022-10-09T11:21:53.119Z,0.8
2022-10-09T11:23:02.885Z,0.8
2022-10-09T11:24:11.559Z,0.6
2022-10-09T11:25:21.303Z,0.7
2022-10-09T11:26:31.022Z,0.8
2022-10-09T11:27:38.710Z,0.6
2022-10-09T11:28:48.551Z,0.8
2022-10-09T11:29:56.173Z,0.9
2022-10-09T11:31:06.054Z,0.9
2022-10-09T11:32:15.726Z,0.7
2022-10-09T11:33:25.435Z,0.7
2022-10-09T11:34:35.091Z,0.7
2022-10-09T11:35:43.821Z,0.4
2022-10-09T11:36:52.641Z,0.5
2022-10-09T11:38:02.367Z,0.6
2022-10-09T11:39:12.097Z,0.6
2022-10-09T11:40:20.805Z,0.7
2022-10-09T11:41:30.578Z,0.8
2022-10-09T11:42:39.414Z,0.6
2022-10-09T11:43:49.122Z,0.8
2022-10-09T11:44:57.820Z,0.9
2022-10-09T11:46:06.662Z,0.7
2022-10-09T11:47:16.313Z,0.6
2022-10-09T11:48:26.068Z,0.6
2022-10-09T11:49:35.753Z,0.6
2022-10-09T11:50:44.430Z,0.9
2022-10-09T11:51:54.109Z,0.5
2022-10-09T11:53:03.769Z,0.5
2022-10-09T11:54:12.576Z,0.8
2022-10-09T11:55:22.246Z,0.7
2022-10-09T11:56:31.965Z,0.8
2022-10-09T11:57:39.639Z,0.6
2022-10-09T11:58:49.317Z,0.5
2022-10-09T11:59:59.123Z,0.8
2022-10-09T12:01:07.818Z,0.8
2022-10-09T12:02:17.610Z,0.8
2022-10-09T12:03:26.209Z,0.7
2022-10-09T12:05:04.304Z,0.8
2022-10-09T12:05:46.605Z,0.6
2022-10-09T12:06:55.255Z,0.5
2022-10-09T12:08:04.918Z,0.8
2022-10-09T12:09:14.617Z,0.7
2022-10-09T12:10:22.349Z,0.5
2022-10-09T12:11:31.058Z,0.6
2022-10-09T12:12:40.800Z,0.8
2022-10-09T12:13:48.483Z,0.8
2022-10-09T12:14:58.182Z,0.6
2022-10-09T12:16:07.880Z,0.6
2022-10-09T12:17:16.588Z,0.6
2022-10-09T12:18:26.327Z,0.4
2022-10-09T12:19:34.001Z,0.7
2022-10-09T12:20:43.672Z,0.7
2022-10-09T12:21:53.428Z,0.7
2022-10-09T12:23:31.381Z,0.6
2022-10-09T12:24:13.807Z,0.6
2022-10-09T12:25:22.485Z,0.9
2022-10-09T12:26:32.167Z,0.8
2022-10-09T12:27:41.895Z,0.8
2022-10-09T12:28:49.706Z,0.8
2022-10-09T12:29:59.313Z,0.5
2022-10-09T12:31:08.066Z,0.8
2022-10-09T12:32:16.741Z,0.4
2022-10-09T12:33:26.479Z,0.7
2022-10-09T12:34:36.212Z,0.6
2022-10-09T12:35:45.916Z,0.7
2022-10-09T12:36:55.610Z,0.8
2022-10-09T12:38:03.282Z,0.7
2022-10-09T12:39:12.945Z,0.7
2022-10-09T12:40:21.663Z,1
2022-10-09T12:41:30.374Z,0.8
2022-10-09T12:42:40.099Z,1
2022-10-09T12:43:48.813Z,1.3
2022-10-09T12:44:58.540Z,1.1
2022-10-09T12:46:08.391Z,0.7
2022-10-09T12:47:17.038Z,0.7
2022-10-09T12:48:26.790Z,0.8
2022-10-09T12:49:35.474Z,0.6
2022-10-09T12:50:44.168Z,0.7
2022-10-09T12:51:55.412Z,0.6
2022-10-09T12:53:03.548Z,0.6
2022-10-09T12:54:12.265Z,0.4
2022-10-09T12:55:20.928Z,0.6
2022-10-09T12:56:30.639Z,0.6
2022-10-09T12:57:40.435Z,0.8
2022-10-09T12:58:49.121Z,0.5
2022-10-09T12:59:57.804Z,0.5
2022-10-09T13:01:07.633Z,0.6
2022-10-09T13:02:16.418Z,0.7
2022-10-09T13:03:24.939Z,0.4
2022-10-09T13:04:34.629Z,0.7
2022-10-09T13:05:41.311Z,0.7
2022-10-09T13:06:50.983Z,0.5
2022-10-09T13:08:00.688Z,0.6
2022-10-09T13:09:10.480Z,0.5
2022-10-09T13:10:20.141Z,0.8
2022-10-09T13:11:27.808Z,0.9
2022-10-09T13:12:36.501Z,0.7
2022-10-09T13:13:45.331Z,0.7
2022-10-09T13:14:54.048Z,0.4
2022-10-09T13:16:03.778Z,0.4
2022-10-09T13:17:11.544Z,0.5
2022-10-09T13:18:21.174Z,0.4
2022-10-09T13:19:29.840Z,0.6
2022-10-09T13:20:37.546Z,0.6
2022-10-09T13:21:46.294Z,0.5
2022-10-09T13:22:54.953Z,0.6
2022-10-09T13:24:03.630Z,0.6
2022-10-09T13:25:13.402Z,0.6
2022-10-09T13:26:22.097Z,0.6
2022-10-09T13:27:31.775Z,0.4
2022-10-09T13:28:40.504Z,0.5
2022-10-09T13:29:48.129Z,0.6
2022-10-09T13:30:57.911Z,0.5
2022-10-09T13:32:07.652Z,0.7
2022-10-09T13:33:17.420Z,0.6
2022-10-09T13:34:27.104Z,0.6
2022-10-09T13:35:34.845Z,0.6
2022-10-09T13:36:44.548Z,0.6
2022-10-09T13:37:53.604Z,0.5
2022-10-09T13:39:02.000Z,0.6
2022-10-09T13:40:10.704Z,0.6
2022-10-09T13:41:19.454Z,0.6
2022-10-09T13:42:28.220Z,0.9
2022-10-09T13:43:36.954Z,0.8
2022-10-09T13:44:46.748Z,0.7
2022-10-09T13:45:56.503Z,0.8
2022-10-09T13:47:05.140Z,1
2022-10-09T13:48:13.869Z,0.9
2022-10-09T13:49:23.698Z,0.8
2022-10-09T13:50:32.389Z,0.6
2022-10-09T13:51:41.078Z,0.8
2022-10-09T13:52:50.880Z,1.2
2022-10-09T13:53:59.690Z,0.8
2022-10-09T13:55:09.502Z,0.7
2022-10-09T13:56:19.233Z,0.7
2022-10-09T13:57:28.933Z,0.7
2022-10-09T13:58:38.577Z,0.8
2022-10-09T13:59:47.397Z,0.8
2022-10-09T14:00:57.117Z,0.7
2022-10-09T14:02:06.849Z,0.7
2022-10-09T14:03:16.531Z,1
2022-10-09T14:04:26.268Z,0.8
2022-10-09T14:05:34.967Z,0.6
2022-10-09T14:06:43.688Z,0.9
2022-10-09T14:07:53.622Z,0.8
2022-10-09T14:09:02.094Z,1
2022-10-09T14:10:11.817Z,0.7
2022-10-09T14:11:21.509Z,0.8
2022-10-09T14:12:28.176Z,0.7
2022-10-09T14:13:37.927Z,1
2022-10-09T14:14:47.599Z,0.5
2022-10-09T14:15:55.281Z,0.7
2022-10-09T14:17:03.955Z,0.9
2022-10-09T14:18:11.726Z,0.7
2022-10-09T14:19:20.462Z,0.6
2022-10-09T14:20:30.132Z,0.5
2022-10-09T14:21:38.908Z,0.9
2022-10-09T14:22:48.830Z,0.9
2022-10-09T14:23:58.359Z,0.9
2022-10-09T14:25:06.021Z,0.8
2022-10-09T14:26:15.721Z,0.5
2022-10-09T14:27:25.728Z,0.8
2022-10-09T14:28:34.539Z,0.6
2022-10-09T14:29:44.250Z,0.5
2022-10-09T14:30:52.926Z,0.6
2022-10-09T14:32:02.634Z,0.7
2022-10-09T14:33:12.345Z,0.5
2022-10-09T14:34:21.051Z,0.7
2022-10-09T14:35:30.793Z,0.5
2022-10-09T14:36:39.511Z,0.5
2022-10-09T14:37:49.302Z,0.4
2022-10-09T14:38:58.987Z,0.9
2022-10-09T14:40:06.697Z,0.7
2022-10-09T14:41:15.410Z,0.8
2022-10-09T14:42:25.122Z,0.9
2022-10-09T14:43:33.822Z,0.7
2022-10-09T14:44:43.516Z,0.6
2022-10-09T14:45:51.262Z,0.8
2022-10-09T14:46:59.991Z,0.8
2022-10-09T14:48:09.696Z,0.8
2022-10-09T14:49:19.431Z,0.6
2022-10-09T14:50:29.164Z,0.5
2022-10-09T14:51:37.840Z,0.8
2022-10-09T14:52:46.794Z,0.9
2022-10-09T14:53:55.295Z,0.7
2022-10-09T14:55:04.011Z,0.6
2022-10-09T14:56:12.734Z,0.6
2022-10-09T14:57:22.462Z,0.7
2022-10-09T14:58:31.238Z,1.1
2022-10-09T14:59:39.912Z,1
2022-10-09T15:00:48.744Z,0.9
2022-10-09T15:01:58.460Z,0.7
2022-10-09T15:03:08.169Z,0.8
2022-10-09T15:04:16.949Z,1.1
2022-10-09T15:05:26.595Z,1.4
2022-10-09T15:06:36.308Z,1.4
2022-10-09T15:07:44.214Z,1.1
2022-10-09T15:08:53.883Z,0.9
2022-10-09T15:10:03.610Z,0.8
2022-10-09T15:11:13.309Z,1.5
2022-10-09T15:12:21.974Z,1.5
2022-10-09T15:13:31.657Z,1.9
2022-10-09T15:14:41.338Z,1.4
2022-10-09T15:15:51.053Z,1.5
2022-10-09T15:17:00.781Z,1.2
2022-10-09T15:18:10.448Z,1.1
2022-10-09T15:19:19.125Z,1
2022-10-09T15:20:28.843Z,1.2
2022-10-09T15:21:37.553Z,1.3
2022-10-09T15:22:46.243Z,1.1
2022-10-09T15:23:55.034Z,1.1
2022-10-09T15:25:04.734Z,1.2
2022-10-09T15:26:14.441Z,0.6
2022-10-09T15:27:24.205Z,0.7
2022-10-09T15:28:33.036Z,0.9
2022-10-09T15:29:42.668Z,1
2022-10-09T15:30:52.398Z,1
2022-10-09T15:32:01.134Z,0.9
2022-10-09T15:33:10.873Z,1.1
2022-10-09T15:34:18.523Z,1.3
2022-10-09T15:35:28.223Z,1.2
2022-10-09T15:36:37.915Z,1.1
2022-10-09T15:37:45.606Z,1.7
2022-10-09T15:38:55.313Z,1.1
2022-10-09T15:40:04.043Z,1
2022-10-09T15:41:12.732Z,0.9
2022-10-09T15:42:21.417Z,1
2022-10-09T15:43:29.243Z,0.9
2022-10-09T15:44:38.079Z,0.8
2022-10-09T15:45:47.694Z,1.1
2022-10-09T15:46:57.433Z,1.1
2022-10-09T15:48:07.182Z,1.2
2022-10-09T15:49:17.005Z,1.1
2022-10-09T15:50:24.692Z,1.1
2022-10-09T15:51:34.497Z,0.9
2022-10-09T15:52:43.199Z,1.2
2022-10-09T15:53:51.879Z,1.1
2022-10-09T15:55:01.639Z,1.2
2022-10-09T15:56:11.550Z,0.9
2022-10-09T15:57:21.318Z,1
2022-10-09T15:58:30.998Z,0.8
2022-10-09T15:59:39.707Z,0.9
2022-10-09T16:00:49.430Z,1.1